Time;durP1;ratioP1;P1;durP2;ratioP2;P2;SDS_P1;SDS_P2;PMS_P1;PMS_P2;Temp;Humidity;BMP_temperature;BMP_pressure;BME280_temperature;BME280_humidity;BME280_pressure;Samples;Min_cycle;Max_cycle;Signal;HPM_P1;HPM_P2
2024/01/25 00:01:04;;;;;;;;;4.00;4.00;;;;;;;;5059725;28;45150;-79
2024/01/25 00:03:29;;;;;;;;;3.00;3.00;;;;;;;;5041121;28;46080;-80
2024/01/25 00:05:54;;;;;;;;;2.00;2.00;;;;;;;;5059078;28;46142;-79
2024/01/25 00:08:20;;;;;;;;;5.00;4.33;;;;;;;;5040841;28;46087;-79
2024/01/25 00:10:46;;;;;;;;;6.67;6.67;;;;;;;;5059290;28;45335;-79
2024/01/25 00:13:11;;;;;;;;;6.33;6.00;;;;;;;;5058897;28;45264;-79
2024/01/25 00:15:36;;;;;;;;;7.00;6.33;;;;;;;;5058869;28;46919;-79
2024/01/25 00:18:02;;;;;;;;;6.33;5.67;;;;;;;;5041038;28;45348;-79
2024/01/25 00:20:27;;;;;;;;;4.00;4.00;;;;;;;;5040950;28;45252;-79
2024/01/25 00:22:53;;;;;;;;;3.00;3.00;;;;;;;;5058730;28;45369;-79
2024/01/25 00:25:18;;;;;;;;;2.00;2.00;;;;;;;;5059226;28;46356;-79
2024/01/25 00:27:44;;;;;;;;;5.00;3.67;;;;;;;;5059153;28;45237;-78
2024/01/25 00:30:10;;;;;;;;;6.00;5.00;;;;;;;;5059120;28;45375;-78
2024/01/25 00:32:35;;;;;;;;;4.00;2.33;;;;;;;;5058909;28;45308;-79
2024/01/25 00:35:00;;;;;;;;;4.67;4.00;;;;;;;;5058592;28;45384;-79
2024/01/25 00:37:26;;;;;;;;;6.67;5.00;;;;;;;;5058758;28;45302;-79
2024/01/25 00:39:51;;;;;;;;;5.00;4.00;;;;;;;;5059054;28;45320;-79
2024/01/25 00:42:21;;;;;;;;;6.67;4.67;;;;;;;;5058708;28;45442;-78
2024/01/25 00:44:46;;;;;;;;;3.00;3.00;;;;;;;;5062276;28;46720;-78
2024/01/25 00:47:11;;;;;;;;;6.00;5.00;;;;;;;;5044176;28;45188;-78
2024/01/25 00:49:37;;;;;;;;;3.33;3.00;;;;;;;;5062088;28;45292;-79
2024/01/25 00:52:02;;;;;;;;;6.67;2.67;;;;;;;;5062238;28;45514;-78
2024/01/25 00:54:27;;;;;;;;;6.00;3.33;;;;;;;;5061895;28;45954;-79
2024/01/25 00:56:53;;;;;;;;;6.67;4.33;;;;;;;;5062293;28;45378;-78
2024/01/25 00:59:18;;;;;;;;;4.67;4.67;;;;;;;;5062403;28;45294;-78
2024/01/25 01:01:46;;;;;;;;;5.00;4.00;;;;;;;;5062197;28;45498;-78
2024/01/25 01:04:11;;;;;;;;;7.67;3.67;;;;;;;;5062015;28;46392;-78
2024/01/25 01:06:36;;;;;;;;;6.67;5.00;;;;;;;;5061729;28;45302;-78
2024/01/25 01:09:02;;;;;;;;;5.00;5.00;;;;;;;;5061746;28;45336;-78
2024/01/25 01:11:27;;;;;;;;;5.00;4.33;;;;;;;;5061877;28;45482;-78
2024/01/25 01:13:55;;;;;;;;;5.33;4.33;;;;;;;;5061965;28;46467;-78
2024/01/25 01:16:20;;;;;;;;;5.33;3.67;;;;;;;;5043641;28;45332;-78
2024/01/25 01:18:46;;;;;;;;;3.00;3.00;;;;;;;;5061325;28;45293;-78
2024/01/25 01:21:11;;;;;;;;;5.67;3.67;;;;;;;;5061271;28;45495;-78
2024/01/25 01:23:36;;;;;;;;;1.00;1.00;;;;;;;;5060632;28;45311;-78
2024/01/25 01:26:01;;;;;;;;;5.00;3.67;;;;;;;;5061201;28;45256;-78
2024/01/25 01:28:26;;;;;;;;;4.67;4.67;;;;;;;;5061856;28;45248;-78
2024/01/25 01:30:52;;;;;;;;;4.67;4.67;;;;;;;;5061474;28;45297;-78
2024/01/25 01:33:17;;;;;;;;;3.33;3.33;;;;;;;;5061663;28;45260;-78
2024/01/25 01:35:42;;;;;;;;;5.33;4.33;;;;;;;;5061112;28;45225;-78
2024/01/25 01:38:07;;;;;;;;;7.33;4.00;;;;;;;;5060544;28;45679;-79
2024/01/25 01:40:32;;;;;;;;;6.00;5.00;;;;;;;;5060931;28;45280;-78
2024/01/25 01:43:01;;;;;;;;;9.00;5.00;;;;;;;;5061306;28;46281;-78
2024/01/25 01:45:26;;;;;;;;;7.00;5.33;;;;;;;;5061334;28;45330;-78
2024/01/25 01:47:52;;;;;;;;;5.67;4.67;;;;;;;;5061497;28;45407;-78
2024/01/25 01:50:17;;;;;;;;;7.00;7.00;;;;;;;;5061112;28;45438;-78
2024/01/25 01:52:42;;;;;;;;;5.00;4.33;;;;;;;;5042788;28;47146;-78
2024/01/25 01:55:08;;;;;;;;;6.00;5.00;;;;;;;;5060999;28;45387;-78
2024/01/25 01:57:34;;;;;;;;;6.00;6.00;;;;;;;;5061424;28;45414;-78
2024/01/25 02:00:00;;;;;;;;;7.00;5.33;;;;;;;;5061355;28;45336;-78
2024/01/25 02:02:26;;;;;;;;;5.33;5.33;;;;;;;;5042660;28;48123;-78
2024/01/25 02:04:51;;;;;;;;;4.00;4.00;;;;;;;;5042335;28;45288;-78
2024/01/25 02:07:16;;;;;;;;;5.00;3.00;;;;;;;;5059937;28;45570;-78
2024/01/25 02:09:42;;;;;;;;;7.00;4.33;;;;;;;;5060989;28;45426;-78
2024/01/25 02:12:07;;;;;;;;;4.67;4.00;;;;;;;;5060889;28;45302;-78
2024/01/25 02:14:33;;;;;;;;;4.33;3.67;;;;;;;;5061134;28;45323;-78
2024/01/25 02:16:58;;;;;;;;;6.67;6.67;;;;;;;;5042980;28;45391;-78
2024/01/25 02:19:23;;;;;;;;;6.00;6.00;;;;;;;;5060708;28;45405;-78
2024/01/25 02:21:49;;;;;;;;;5.00;5.00;;;;;;;;5060729;28;45579;-78
2024/01/25 02:24:14;;;;;;;;;7.33;5.67;;;;;;;;5060724;28;45393;-78
2024/01/25 02:26:39;;;;;;;;;5.00;5.00;;;;;;;;5042854;28;45312;-78
2024/01/25 02:29:07;;;;;;;;;9.00;8.33;;;;;;;;5060763;28;45377;-78
2024/01/25 02:31:32;;;;;;;;;9.67;8.33;;;;;;;;5060321;28;46249;-78
2024/01/25 02:33:57;;;;;;;;;6.00;4.67;;;;;;;;5060616;28;45292;-78
2024/01/25 02:36:23;;;;;;;;;4.00;3.00;;;;;;;;5042460;28;45398;-78
2024/01/25 02:38:48;;;;;;;;;6.33;6.00;;;;;;;;5042370;28;45865;-78
2024/01/25 02:41:13;;;;;;;;;6.67;5.67;;;;;;;;5060426;28;45366;-78
2024/01/25 02:43:38;;;;;;;;;9.00;5.33;;;;;;;;5060524;28;45166;-79
2024/01/25 02:46:03;;;;;;;;;5.67;4.67;;;;;;;;5060695;28;45383;-79
2024/01/25 02:48:29;;;;;;;;;8.67;8.00;;;;;;;;5060330;28;45201;-78
2024/01/25 02:50:54;;;;;;;;;6.67;5.00;;;;;;;;5060458;28;45276;-78
2024/01/25 02:53:19;;;;;;;;;8.00;7.33;;;;;;;;5060374;28;45382;-79
2024/01/25 02:55:44;;;;;;;;;7.00;4.67;;;;;;;;5060337;28;45291;-79
2024/01/25 02:58:09;;;;;;;;;10.00;5.67;;;;;;;;5060127;28;45402;-78
2024/01/25 03:00:35;;;;;;;;;8.33;6.00;;;;;;;;5060148;28;45213;-78
2024/01/25 03:03:00;;;;;;;;;6.00;6.00;;;;;;;;5060228;28;45264;-78
2024/01/25 03:05:26;;;;;;;;;5.33;4.33;;;;;;;;5059665;28;45386;-79
2024/01/25 03:07:51;;;;;;;;;5.33;4.00;;;;;;;;5041669;28;45545;-78
2024/01/25 03:10:16;;;;;;;;;8.00;7.00;;;;;;;;5059965;28;46335;-79
2024/01/25 03:12:41;;;;;;;;;7.00;5.67;;;;;;;;5041870;28;45289;-78
2024/01/25 03:15:07;;;;;;;;;5.00;4.67;;;;;;;;5060136;28;45303;-78
2024/01/25 03:17:32;;;;;;;;;4.67;4.00;;;;;;;;5060012;28;45307;-78
2024/01/25 03:19:57;;;;;;;;;6.00;5.00;;;;;;;;5059707;28;46306;-79
2024/01/25 03:22:22;;;;;;;;;9.00;5.33;;;;;;;;5059521;28;45353;-79
2024/01/25 03:24:48;;;;;;;;;3.67;2.67;;;;;;;;5060222;28;45309;-78
2024/01/25 03:27:14;;;;;;;;;5.00;4.00;;;;;;;;5060105;28;45612;-78
2024/01/25 03:29:43;;;;;;;;;8.00;5.00;;;;;;;;5059608;28;45389;-78
2024/01/25 03:32:09;;;;;;;;;7.00;7.00;;;;;;;;5045485;28;45263;-79
2024/01/25 03:34:34;;;;;;;;;6.33;3.33;;;;;;;;5039594;28;45259;-79
2024/01/25 03:36:59;;;;;;;;;2.00;2.00;;;;;;;;5039423;28;45263;-79
2024/01/25 03:39:24;;;;;;;;;5.00;3.33;;;;;;;;5039218;28;45374;-79
2024/01/25 03:41:50;;;;;;;;;3.00;3.00;;;;;;;;5039556;28;45221;-79
2024/01/25 03:44:15;;;;;;;;;2.00;2.00;;;;;;;;5039522;28;45271;-78
2024/01/25 03:46:40;;;;;;;;;3.67;2.67;;;;;;;;5038011;28;46076;-79
2024/01/25 03:49:05;;;;;;;;;5.00;3.00;;;;;;;;5039187;28;45221;-79
2024/01/25 03:51:30;;;;;;;;;4.33;4.33;;;;;;;;5039248;28;45290;-78
2024/01/25 03:53:58;;;;;;;;;3.00;1.67;;;;;;;;5039284;28;45210;-79
2024/01/25 03:56:23;;;;;;;;;2.00;2.00;;;;;;;;5039425;28;45536;-79
2024/01/25 03:58:48;;;;;;;;;4.33;3.00;;;;;;;;5041140;28;47128;-78
2024/01/25 04:01:13;;;;;;;;;2.00;1.00;;;;;;;;5041188;28;45316;-79
2024/01/25 04:03:38;;;;;;;;;2.33;2.33;;;;;;;;5059390;28;45584;-78
2024/01/25 04:06:04;;;;;;;;;2.67;2.67;;;;;;;;5059265;28;45296;-79
2024/01/25 04:08:29;;;;;;;;;2.33;2.33;;;;;;;;5058702;28;46314;-78
2024/01/25 04:10:54;;;;;;;;;5.33;2.00;;;;;;;;5059288;28;45421;-78
2024/01/25 04:13:19;;;;;;;;;3.33;3.33;;;;;;;;5059420;28;45400;-79
2024/01/25 04:15:44;;;;;;;;;4.33;3.67;;;;;;;;5059080;28;45425;-78
2024/01/25 04:18:10;;;;;;;;;3.00;3.00;;;;;;;;5060253;28;45431;-79
2024/01/25 04:20:35;;;;;;;;;2.00;2.00;;;;;;;;5044405;28;45403;-78
2024/01/25 04:23:00;;;;;;;;;5.67;4.67;;;;;;;;5062488;28;45362;-79
2024/01/25 04:25:25;;;;;;;;;5.33;4.33;;;;;;;;5062809;28;45374;-79
2024/01/25 04:27:51;;;;;;;;;4.67;4.67;;;;;;;;5062703;28;45512;-79
2024/01/25 04:30:16;;;;;;;;;5.00;5.00;;;;;;;;5062637;28;45394;-79
2024/01/25 04:32:41;;;;;;;;;6.33;5.00;;;;;;;;5044634;28;45439;-79
2024/01/25 04:35:07;;;;;;;;;7.33;4.33;;;;;;;;5062364;28;45302;-78
2024/01/25 04:37:33;;;;;;;;;9.00;6.00;;;;;;;;5062065;28;45421;-79
2024/01/25 04:39:59;;;;;;;;;7.67;5.00;;;;;;;;5062442;28;45231;-79
2024/01/25 04:42:24;;;;;;;;;6.00;4.00;;;;;;;;5062137;28;45641;-78
2024/01/25 04:44:49;;;;;;;;;3.33;3.33;;;;;;;;5062077;28;45530;-79
2024/01/25 04:47:14;;;;;;;;;4.33;4.00;;;;;;;;5062245;28;45257;-79
2024/01/25 04:49:40;;;;;;;;;6.67;3.67;;;;;;;;5043163;28;45455;-79
2024/01/25 04:52:05;;;;;;;;;3.67;2.67;;;;;;;;5061522;28;45283;-79
2024/01/25 04:54:30;;;;;;;;;3.67;3.33;;;;;;;;5043989;28;46170;-79
2024/01/25 04:56:55;;;;;;;;;3.67;3.00;;;;;;;;5043968;28;48463;-79
2024/01/25 04:59:21;;;;;;;;;6.00;4.33;;;;;;;;5062253;28;45323;-79
2024/01/25 05:01:46;;;;;;;;;3.67;3.67;;;;;;;;5044073;28;45333;-79
2024/01/25 05:04:11;;;;;;;;;2.00;2.00;;;;;;;;5061865;28;45195;-79
2024/01/25 05:06:36;;;;;;;;;4.33;4.00;;;;;;;;5062071;28;45331;-78
2024/01/25 05:09:02;;;;;;;;;5.00;3.00;;;;;;;;5043441;28;45584;-78
2024/01/25 05:11:27;;;;;;;;;3.33;3.00;;;;;;;;5061965;28;45680;-78
2024/01/25 05:13:52;;;;;;;;;4.00;4.00;;;;;;;;5062106;28;45436;-78
2024/01/25 05:16:17;;;;;;;;;4.00;4.00;;;;;;;;5043629;28;47415;-79
2024/01/25 05:18:42;;;;;;;;;3.33;2.00;;;;;;;;5061626;28;45178;-80
2024/01/25 05:21:08;;;;;;;;;4.00;4.00;;;;;;;;5061897;28;45300;-79
2024/01/25 05:23:33;;;;;;;;;3.67;3.67;;;;;;;;5043327;28;46336;-78
2024/01/25 05:25:58;;;;;;;;;5.00;2.67;;;;;;;;5043733;28;46684;-79
2024/01/25 05:28:24;;;;;;;;;3.00;2.67;;;;;;;;5061321;28;45328;-79
2024/01/25 05:30:49;;;;;;;;;2.67;2.00;;;;;;;;5061759;28;45351;-78
2024/01/25 05:33:15;;;;;;;;;4.00;3.00;;;;;;;;5061546;28;45407;-78
2024/01/25 05:35:40;;;;;;;;;5.00;4.00;;;;;;;;5061399;28;46300;-78
2024/01/25 05:38:05;;;;;;;;;2.00;2.00;;;;;;;;5079344;28;45296;-79
2024/01/25 05:40:30;;;;;;;;;4.33;2.00;;;;;;;;5081805;28;45330;-78
2024/01/25 05:42:55;;;;;;;;;3.00;3.00;;;;;;;;5067793;28;45572;-78
2024/01/25 05:45:21;;;;;;;;;3.00;3.00;;;;;;;;5061238;28;45380;-78
2024/01/25 05:47:47;;;;;;;;;3.00;3.00;;;;;;;;5060019;28;45295;-78
2024/01/25 05:50:12;;;;;;;;;5.67;5.00;;;;;;;;5060747;28;45288;-78
2024/01/25 05:52:37;;;;;;;;;3.33;3.00;;;;;;;;5042871;28;47153;-78
2024/01/25 05:55:03;;;;;;;;;4.67;3.00;;;;;;;;5061177;28;45405;-78
2024/01/25 05:57:29;;;;;;;;;3.00;3.00;;;;;;;;5061180;28;45349;-78
2024/01/25 05:59:54;;;;;;;;;3.00;3.00;;;;;;;;5061327;28;45248;-78
2024/01/25 06:02:19;;;;;;;;;5.67;4.00;;;;;;;;5061154;28;45344;-78
2024/01/25 06:04:44;;;;;;;;;2.67;2.67;;;;;;;;5060992;28;46628;-78
2024/01/25 06:07:10;;;;;;;;;4.33;4.00;;;;;;;;5060938;28;45387;-79
2024/01/25 06:09:35;;;;;;;;;4.00;3.33;;;;;;;;5060992;28;45321;-78
2024/01/25 06:12:01;;;;;;;;;5.67;5.00;;;;;;;;5042775;28;45930;-78
2024/01/25 06:14:26;;;;;;;;;7.33;5.33;;;;;;;;5042727;28;47241;-78
2024/01/25 06:16:51;;;;;;;;;3.00;3.00;;;;;;;;5060906;28;45277;-78
2024/01/25 06:19:16;;;;;;;;;4.67;3.67;;;;;;;;5060887;28;45462;-78
2024/01/25 06:21:41;;;;;;;;;6.67;4.00;;;;;;;;5060737;28;45454;-78
2024/01/25 06:24:07;;;;;;;;;5.00;5.00;;;;;;;;5042493;28;47211;-78
2024/01/25 06:26:32;;;;;;;;;6.00;5.33;;;;;;;;5060945;28;45148;-78
2024/01/25 06:28:57;;;;;;;;;4.00;3.00;;;;;;;;5061018;28;45468;-79
2024/01/25 06:31:24;;;;;;;;;3.67;3.33;;;;;;;;5060761;28;45529;-79
2024/01/25 06:33:52;;;;;;;;;3.00;3.00;;;;;;;;5060793;28;45338;-79
2024/01/25 06:36:17;;;;;;;;;3.67;3.67;;;;;;;;5060673;28;45356;-79
2024/01/25 06:38:42;;;;;;;;;5.67;5.67;;;;;;;;5042385;28;45311;-79
2024/01/25 06:41:08;;;;;;;;;3.67;3.67;;;;;;;;5059505;28;45311;-79
2024/01/25 06:43:33;;;;;;;;;7.00;6.33;;;;;;;;5060550;28;45280;-79
2024/01/25 06:45:59;;;;;;;;;7.33;6.67;;;;;;;;5060428;28;45353;-79
2024/01/25 06:48:24;;;;;;;;;7.00;6.33;;;;;;;;5059604;28;45299;-79
2024/01/25 06:50:50;;;;;;;;;7.67;6.33;;;;;;;;5058973;28;45499;-79
2024/01/25 06:53:16;;;;;;;;;6.00;4.67;;;;;;;;5041008;28;47921;-79
2024/01/25 06:55:41;;;;;;;;;9.67;8.67;;;;;;;;5041890;28;45380;-79
2024/01/25 06:58:06;;;;;;;;;4.33;4.33;;;;;;;;5060576;28;45373;-79
2024/01/25 07:00:31;;;;;;;;;6.67;6.67;;;;;;;;5060390;28;45523;-79
2024/01/25 07:02:56;;;;;;;;;5.67;5.00;;;;;;;;5060393;28;45603;-79
2024/01/25 07:05:21;;;;;;;;;6.33;6.33;;;;;;;;5060257;28;45272;-79
2024/01/25 07:07:47;;;;;;;;;7.00;5.67;;;;;;;;5059913;28;45335;-79
2024/01/25 07:10:12;;;;;;;;;11.00;9.00;;;;;;;;5060097;28;45331;-80
2024/01/25 07:12:37;;;;;;;;;7.33;7.00;;;;;;;;5041838;28;46444;-81
2024/01/25 07:15:02;;;;;;;;;8.00;7.67;;;;;;;;5046772;28;45280;-81
2024/01/25 07:17:28;;;;;;;;;11.67;9.67;;;;;;;;5065259;28;45268;-80
2024/01/25 07:19:53;;;;;;;;;9.67;9.67;;;;;;;;5067094;28;45385;-80
2024/01/25 07:22:18;;;;;;;;;7.33;7.33;;;;;;;;5063964;28;46392;-81
2024/01/25 07:24:43;;;;;;;;;8.00;7.33;;;;;;;;5055185;28;45510;-80
2024/01/25 07:27:10;;;;;;;;;8.00;8.00;;;;;;;;5052014;28;45423;-81
2024/01/25 07:29:35;;;;;;;;;11.00;8.33;;;;;;;;5066204;28;45576;-82
2024/01/25 07:32:00;;;;;;;;;7.00;7.00;;;;;;;;5059481;28;45366;-82
2024/01/25 07:34:25;;;;;;;;;8.00;8.00;;;;;;;;5058292;28;45530;-81
2024/01/25 07:36:50;;;;;;;;;8.00;7.00;;;;;;;;5059317;28;45410;-80
2024/01/25 07:39:16;;;;;;;;;9.33;7.67;;;;;;;;5059611;28;45261;-82
2024/01/25 07:41:41;;;;;;;;;9.00;7.67;;;;;;;;5058687;28;45502;-81
2024/01/25 07:44:07;;;;;;;;;10.00;8.00;;;;;;;;5059749;28;45331;-83
2024/01/25 07:46:32;;;;;;;;;8.33;8.00;;;;;;;;5041620;28;45381;-81
2024/01/25 07:48:57;;;;;;;;;8.33;7.33;;;;;;;;5041233;28;45601;-83
2024/01/25 07:51:22;;;;;;;;;6.67;6.33;;;;;;;;5059465;28;45302;-80
2024/01/25 07:53:47;;;;;;;;;8.33;8.33;;;;;;;;5041949;28;45233;-80
2024/01/25 07:56:13;;;;;;;;;9.00;7.00;;;;;;;;5042057;28;45303;-79
2024/01/25 07:58:38;;;;;;;;;7.00;7.00;;;;;;;;5059677;28;45593;-80
2024/01/25 08:01:05;;;;;;;;;9.67;9.33;;;;;;;;5059966;28;45535;-81
2024/01/25 08:03:30;;;;;;;;;12.00;11.67;;;;;;;;5059347;28;45212;-79
2024/01/25 08:05:55;;;;;;;;;9.67;8.67;;;;;;;;5059573;28;45226;-80
2024/01/25 08:08:20;;;;;;;;;10.33;9.67;;;;;;;;5063775;28;45230;-80
2024/01/25 08:10:46;;;;;;;;;15.00;12.67;;;;;;;;5069556;28;45312;-80
2024/01/25 08:13:12;;;;;;;;;16.67;13.67;;;;;;;;5048620;28;45785;-82
2024/01/25 08:15:37;;;;;;;;;14.67;12.33;;;;;;;;5059447;28;45554;-83
2024/01/25 08:18:02;;;;;;;;;12.00;11.33;;;;;;;;5058988;28;45511;-82
2024/01/25 08:20:28;;;;;;;;;18.00;17.00;;;;;;;;5040673;28;48343;-80
2024/01/25 08:22:53;;;;;;;;;18.67;16.67;;;;;;;;5040700;28;45285;-81
2024/01/25 08:25:20;;;;;;;;;17.33;16.00;;;;;;;;5059345;28;45476;-82
2024/01/25 08:27:45;;;;;;;;;14.67;13.67;;;;;;;;5059051;28;45458;-80
2024/01/25 08:30:10;;;;;;;;;24.00;22.33;;;;;;;;5058792;28;45426;-82
2024/01/25 08:32:35;;;;;;;;;20.33;17.00;;;;;;;;5043161;28;45261;-83
2024/01/25 08:35:00;;;;;;;;;20.33;17.33;;;;;;;;5058863;28;45363;-83
2024/01/25 08:37:26;;;;;;;;;15.67;13.67;;;;;;;;5040365;28;46095;-80
2024/01/25 08:39:51;;;;;;;;;22.00;18.00;;;;;;;;5058715;28;46231;-80
2024/01/25 08:42:17;;;;;;;;;19.33;17.33;;;;;;;;5067474;28;45300;-82
2024/01/25 08:44:48;;;;;;;;;18.00;16.00;;;;;;;;5043298;28;45806;-80
2024/01/25 08:47:13;;;;;;;;;19.00;17.33;;;;;;;;5031887;28;45901;-80
2024/01/25 08:49:39;;;;;;;;;16.00;16.00;;;;;;;;5039879;28;46431;-82
2024/01/25 08:52:05;;;;;;;;;17.00;15.00;;;;;;;;5056672;28;45539;-82
2024/01/25 08:54:30;;;;;;;;;18.00;17.67;;;;;;;;5056071;28;45438;-81
2024/01/25 08:56:56;;;;;;;;;19.67;16.67;;;;;;;;5052292;28;45555;-81
2024/01/25 08:59:21;;;;;;;;;18.00;16.67;;;;;;;;5038341;28;47359;-81
2024/01/25 09:01:46;;;;;;;;;22.67;20.67;;;;;;;;5038142;28;46141;-81
2024/01/25 09:04:11;;;;;;;;;21.33;19.33;;;;;;;;5057862;28;45421;-81
2024/01/25 09:06:36;;;;;;;;;20.33;19.67;;;;;;;;5060352;28;45383;-81
2024/01/25 09:09:02;;;;;;;;;23.67;20.33;;;;;;;;5059902;28;45505;-81
2024/01/25 09:11:27;;;;;;;;;23.00;21.33;;;;;;;;5041553;28;45747;-80
2024/01/25 09:13:52;;;;;;;;;20.67;17.33;;;;;;;;5061554;28;45382;-83
2024/01/25 09:16:17;;;;;;;;;18.33;17.67;;;;;;;;5061249;28;45334;-81
2024/01/25 09:18:54;;;;;;;;;24.33;21.00;;;;;;;;5061616;28;45377;-80
2024/01/25 09:21:59;;;;;;;;;;;;;;;;;;;;;
2024/01/25 09:24:25;;;;;;;;;22.00;21.00;;;;;;;;5060613;28;67785;-81
2024/01/25 09:26:50;;;;;;;;;21.67;19.33;;;;;;;;5061874;28;45241;-80
2024/01/25 09:29:24;;;;;;;;;24.33;21.67;;;;;;;;5061406;28;45753;-81
2024/01/25 09:31:49;;;;;;;;;20.67;19.00;;;;;;;;5042882;28;45393;-80
2024/01/25 09:34:15;;;;;;;;;17.67;17.00;;;;;;;;5043288;28;45718;-81
2024/01/25 09:36:40;;;;;;;;;22.00;21.33;;;;;;;;5061348;28;45354;-81
2024/01/25 09:39:05;;;;;;;;;18.67;18.00;;;;;;;;5061484;28;46033;-80
2024/01/25 09:41:32;;;;;;;;;22.67;22.00;;;;;;;;5043197;28;45372;-80
2024/01/25 09:44:01;;;;;;;;;23.33;22.33;;;;;;;;5036307;28;45733;-81
2024/01/25 09:46:26;;;;;;;;;17.33;15.00;;;;;;;;5062480;28;45555;-81
2024/01/25 09:48:51;;;;;;;;;16.00;13.67;;;;;;;;5058045;28;45500;-82
2024/01/25 09:51:16;;;;;;;;;18.00;16.33;;;;;;;;5059806;28;45393;-81
2024/01/25 09:53:42;;;;;;;;;19.33;19.33;;;;;;;;5059397;28;45450;-82
2024/01/25 09:56:08;;;;;;;;;17.33;16.33;;;;;;;;5059684;28;45517;-81
2024/01/25 09:58:38;;;;;;;;;18.00;17.00;;;;;;;;5041137;28;48039;-80
2024/01/25 10:01:03;;;;;;;;;15.00;14.33;;;;;;;;5041581;28;45485;-81
2024/01/25 10:03:43;;;;;;;;;18.00;15.67;;;;;;;;5059430;28;45358;-83
2024/01/25 10:06:08;;;;;;;;;16.67;16.67;;;;;;;;5011545;28;47577;-82
2024/01/25 10:08:33;;;;;;;;;15.67;15.00;;;;;;;;5027167;28;46194;-81
2024/01/25 10:11:12;;;;;;;;;16.67;15.00;;;;;;;;5073997;27;45327;-82
2024/01/25 10:13:50;;;;;;;;;19.67;17.33;;;;;;;;5047916;28;45411;-81
2024/01/25 10:16:17;;;;;;;;;19.00;17.67;;;;;;;;5049738;28;47218;-81
2024/01/25 10:18:42;;;;;;;;;21.67;20.33;;;;;;;;5070507;28;45367;-81
2024/01/25 10:21:11;;;;;;;;;16.00;16.00;;;;;;;;5070494;28;45375;-84
2024/01/25 10:23:36;;;;;;;;;14.67;14.67;;;;;;;;5079105;28;45367;-81
2024/01/25 10:26:02;;;;;;;;;13.67;13.00;;;;;;;;5079601;28;45266;-82
2024/01/25 10:28:28;;;;;;;;;13.33;13.00;;;;;;;;5060693;28;46359;-81
2024/01/25 10:30:55;;;;;;;;;16.00;15.00;;;;;;;;5061647;28;45627;-81
2024/01/25 10:33:21;;;;;;;;;8.00;8.00;;;;;;;;5071540;28;45280;-80
2024/01/25 10:35:49;;;;;;;;;17.00;16.00;;;;;;;;5052679;28;46410;-80
2024/01/25 10:38:16;;;;;;;;;15.00;15.00;;;;;;;;5058921;28;47378;-81
2024/01/25 10:40:42;;;;;;;;;15.33;12.00;;;;;;;;5046572;28;45254;-81
2024/01/25 10:43:08;;;;;;;;;9.00;8.33;;;;;;;;5042167;28;45293;-81
2024/01/25 10:45:33;;;;;;;;;12.00;10.33;;;;;;;;5041706;28;46436;-82
2024/01/25 10:47:59;;;;;;;;;14.67;14.67;;;;;;;;5059350;28;45443;-80
2024/01/25 10:50:25;;;;;;;;;14.33;13.67;;;;;;;;5060118;28;45316;-81
2024/01/25 10:52:50;;;;;;;;;12.33;12.33;;;;;;;;5041904;28;45396;-81
2024/01/25 10:55:16;;;;;;;;;13.00;13.00;;;;;;;;5046720;28;46013;-81
2024/01/25 10:57:45;;;;;;;;;16.67;15.00;;;;;;;;5041653;28;49267;-81
2024/01/25 11:00:12;;;;;;;;;14.67;12.00;;;;;;;;5042177;28;46083;-81
2024/01/25 11:02:39;;;;;;;;;13.67;12.67;;;;;;;;5067014;28;45292;-82
2024/01/25 11:05:12;;;;;;;;;18.33;17.00;;;;;;;;5068046;28;45508;-82
2024/01/25 11:07:47;;;;;;;;;12.00;12.00;;;;;;;;5064301;28;47228;-81
2024/01/25 11:10:24;;;;;;;;;17.33;17.00;;;;;;;;5059641;28;45346;-81
2024/01/25 11:12:50;;;;;;;;;12.33;12.33;;;;;;;;5060019;28;45451;-82
2024/01/25 11:15:22;;;;;;;;;16.33;14.33;;;;;;;;5080038;28;45337;-81
2024/01/25 11:17:52;;;;;;;;;13.67;11.67;;;;;;;;5061578;28;47410;-83
2024/01/25 11:20:19;;;;;;;;;11.00;11.00;;;;;;;;5079407;28;45434;-82
2024/01/25 11:22:45;;;;;;;;;14.00;14.00;;;;;;;;5061399;28;45375;-80
2024/01/25 11:25:12;;;;;;;;;14.33;11.67;;;;;;;;5079965;28;45323;-81
2024/01/25 11:27:37;;;;;;;;;14.00;14.00;;;;;;;;5061183;28;47386;-82
2024/01/25 11:30:04;;;;;;;;;16.00;13.33;;;;;;;;5076812;28;45348;-82
2024/01/25 11:32:29;;;;;;;;;15.00;14.67;;;;;;;;5058744;27;45540;-82
2024/01/25 11:34:58;;;;;;;;;10.33;10.33;;;;;;;;5073064;28;45461;-82
2024/01/25 11:37:23;;;;;;;;;15.00;13.33;;;;;;;;5071352;28;45350;-80
2024/01/25 11:39:48;;;;;;;;;18.33;13.00;;;;;;;;5079898;28;45343;-81
2024/01/25 11:42:13;;;;;;;;;15.00;13.33;;;;;;;;5069081;28;45237;-83
2024/01/25 11:44:39;;;;;;;;;15.00;13.00;;;;;;;;5041304;28;47093;-80
2024/01/25 11:47:04;;;;;;;;;13.33;12.67;;;;;;;;5068656;28;46154;-81
2024/01/25 11:49:29;;;;;;;;;6.67;4.67;;;;;;;;5074852;28;45287;-80
2024/01/25 11:51:54;;;;;;;;;17.33;15.00;;;;;;;;5057503;28;45299;-80
2024/01/25 11:54:20;;;;;;;;;19.67;18.33;;;;;;;;5048077;28;46383;-80
2024/01/25 11:56:46;;;;;;;;;14.67;14.00;;;;;;;;5067446;28;46246;-78
2024/01/25 11:59:11;;;;;;;;;13.00;12.33;;;;;;;;5064114;28;45395;-79
2024/01/25 12:01:37;;;;;;;;;12.67;12.67;;;;;;;;5054611;28;45454;-79
2024/01/25 12:04:02;;;;;;;;;15.67;14.67;;;;;;;;5055894;28;45558;-79
2024/01/25 12:06:27;;;;;;;;;15.67;13.33;;;;;;;;5039195;28;48066;-80
2024/01/25 12:08:53;;;;;;;;;20.33;17.67;;;;;;;;5066087;28;45453;-81
2024/01/25 12:11:18;;;;;;;;;13.33;12.00;;;;;;;;5059487;28;45355;-79
2024/01/25 12:13:44;;;;;;;;;11.00;8.00;;;;;;;;5057756;28;45530;-79
2024/01/25 12:16:10;;;;;;;;;14.00;12.00;;;;;;;;5039442;28;46049;-80
2024/01/25 12:18:35;;;;;;;;;7.67;7.00;;;;;;;;5057550;28;45482;-80
2024/01/25 12:21:01;;;;;;;;;8.67;8.67;;;;;;;;5057666;28;45375;-80
2024/01/25 12:23:30;;;;;;;;;9.00;7.67;;;;;;;;5061920;28;45364;-80
2024/01/25 12:25:58;;;;;;;;;9.00;8.00;;;;;;;;5063718;28;46404;-80
2024/01/25 12:28:25;;;;;;;;;7.67;6.00;;;;;;;;5066954;28;45458;-80
2024/01/25 12:30:50;;;;;;;;;9.00;7.33;;;;;;;;5048949;28;45571;-81
2024/01/25 12:33:16;;;;;;;;;4.33;4.33;;;;;;;;5053860;28;46228;-80
2024/01/25 12:35:41;;;;;;;;;4.67;4.67;;;;;;;;5049293;28;46369;-80
2024/01/25 12:38:07;;;;;;;;;8.33;7.00;;;;;;;;5035946;28;45399;-81
2024/01/25 12:40:32;;;;;;;;;7.67;6.67;;;;;;;;5042827;28;45446;-79
2024/01/25 12:42:57;;;;;;;;;7.00;7.00;;;;;;;;5043777;28;45305;-80
2024/01/25 12:45:23;;;;;;;;;4.33;4.33;;;;;;;;5061621;28;45520;-78
2024/01/25 12:47:48;;;;;;;;;6.67;6.00;;;;;;;;5061640;28;45334;-79
2024/01/25 12:50:13;;;;;;;;;7.67;7.67;;;;;;;;5061582;28;45605;-81
2024/01/25 12:52:38;;;;;;;;;4.00;4.00;;;;;;;;5042542;28;46154;-80
2024/01/25 12:55:03;;;;;;;;;5.00;5.00;;;;;;;;5043159;28;47503;-80
2024/01/25 12:57:29;;;;;;;;;7.33;6.00;;;;;;;;5061658;28;45201;-79
2024/01/25 12:59:54;;;;;;;;;4.00;3.33;;;;;;;;5044715;28;45450;-79
2024/01/25 13:02:19;;;;;;;;;4.75;4.75;;;;;;;;5060243;28;47047;-79
2024/01/25 13:04:44;;;;;;;;;6.25;5.00;;;;;;;;5075802;28;46281;-80
2024/01/25 13:07:09;;;;;;;;;3.67;3.67;;;;;;;;5047700;28;45422;-79
2024/01/25 13:09:37;;;;;;;;;4.00;4.00;;;;;;;;5058401;28;45348;-80
2024/01/25 13:12:02;;;;;;;;;6.75;6.00;;;;;;;;5081129;28;45405;-80
2024/01/25 13:14:27;;;;;;;;;4.50;4.00;;;;;;;;5076489;28;45734;-78
2024/01/25 13:16:53;;;;;;;;;3.00;3.00;;;;;;;;5063710;28;45461;-79
2024/01/25 13:19:18;;;;;;;;;5.00;4.33;;;;;;;;5051269;28;45711;-80
2024/01/25 13:21:43;;;;;;;;;7.00;6.00;;;;;;;;5061535;28;45518;-80
2024/01/25 13:24:08;;;;;;;;;7.00;6.00;;;;;;;;5060720;28;45260;-80
2024/01/25 13:26:35;;;;;;;;;3.33;3.33;;;;;;;;5061176;28;45154;-80
2024/01/25 13:29:01;;;;;;;;;4.00;4.00;;;;;;;;5042189;28;45435;-79
2024/01/25 13:31:26;;;;;;;;;4.00;4.00;;;;;;;;5060575;28;45954;-79
2024/01/25 13:33:51;;;;;;;;;5.00;4.33;;;;;;;;5064600;28;45531;-79
2024/01/25 13:36:16;;;;;;;;;5.00;5.00;;;;;;;;5044369;28;45368;-80
2024/01/25 13:38:41;;;;;;;;;5.00;3.67;;;;;;;;5040598;28;45498;-81
2024/01/25 13:41:07;;;;;;;;;5.00;4.00;;;;;;;;5055459;28;45632;-80
2024/01/25 13:43:32;;;;;;;;;4.00;4.00;;;;;;;;5041548;28;45610;-80
2024/01/25 13:45:57;;;;;;;;;4.67;3.33;;;;;;;;5060632;28;45455;-79
2024/01/25 13:48:22;;;;;;;;;5.00;4.00;;;;;;;;5059997;28;45281;-79
2024/01/25 13:50:48;;;;;;;;;3.25;3.25;;;;;;;;5058221;28;45396;-80
2024/01/25 13:53:13;;;;;;;;;4.00;4.00;;;;;;;;5042780;28;48058;-79
2024/01/25 13:55:38;;;;;;;;;4.33;4.33;;;;;;;;5042252;28;45577;-80
2024/01/25 13:58:03;;;;;;;;;3.33;3.33;;;;;;;;5059936;28;45511;-79
2024/01/25 14:00:29;;;;;;;;;4.67;4.00;;;;;;;;5042674;28;45300;-78
2024/01/25 14:02:57;;;;;;;;;5.00;4.33;;;;;;;;5066860;27;45538;-79
2024/01/25 14:05:22;;;;;;;;;3.25;3.00;;;;;;;;5059867;28;45356;-79
2024/01/25 14:07:47;;;;;;;;;5.00;5.00;;;;;;;;5059778;28;45815;-78
2024/01/25 14:10:12;;;;;;;;;2.25;2.25;;;;;;;;5060056;28;45409;-78
2024/01/25 14:12:37;;;;;;;;;5.75;5.50;;;;;;;;5059550;28;46484;-80
2024/01/25 14:15:03;;;;;;;;;4.50;4.50;;;;;;;;5060184;28;45205;-77
2024/01/25 14:17:29;;;;;;;;;5.67;5.00;;;;;;;;5059952;28;45422;-79
2024/01/25 14:19:54;;;;;;;;;3.25;3.25;;;;;;;;5037268;28;47351;-80
2024/01/25 14:22:28;;;;;;;;;4.50;4.50;;;;;;;;5058436;28;45553;-78
2024/01/25 14:24:53;;;;;;;;;5.00;3.33;;;;;;;;5042297;28;45355;-78
2024/01/25 14:27:19;;;;;;;;;5.00;5.00;;;;;;;;5060866;28;45566;-79